Time;durP1;ratioP1;P1;durP2;ratioP2;P2;SDS_P1;SDS_P2;PMS_P1;PMS_P2;Temp;Humidity;BMP_temperature;BMP_pressure;BME280_temperature;BME280_humidity;BME280_pressure;Samples;Min_cycle;Max_cycle;Signal;HPM_P1;HPM_P2
2022/06/30 00:01:37;;;;;;;7.32;2.90;;;;;;;;;;10071377;28;20057;-74
2022/06/30 00:06:32;;;;;;;6.15;3.25;;;;;;;;;;10070826;28;20056;-74
2022/06/30 00:11:26;;;;;;;6.88;2.80;;;;;;;;;;10069462;28;20049;-74
2022/06/30 00:16:19;;;;;;;8.88;3.65;;;;;;;;;;10071102;28;20446;-73
2022/06/30 00:21:14;;;;;;;10.13;3.65;;;;;;;;;;10070574;28;20061;-73
2022/06/30 00:26:08;;;;;;;13.35;3.88;;;;;;;;;;10070467;28;20049;-73
2022/06/30 00:31:02;;;;;;;14.25;5.05;;;;;;;;;;10070131;28;20060;-73
2022/06/30 00:35:56;;;;;;;10.02;3.20;;;;;;;;;;10069488;28;20076;-73
2022/06/30 00:40:50;;;;;;;7.68;3.35;;;;;;;;;;10070034;28;20128;-73
2022/06/30 00:45:45;;;;;;;8.88;3.22;;;;;;;;;;10067893;28;20057;-72
2022/06/30 00:50:39;;;;;;;7.63;3.97;;;;;;;;;;10069907;28;20088;-73
2022/06/30 00:55:33;;;;;;;14.02;5.30;;;;;;;;;;10069580;28;20501;-73
2022/06/30 01:00:29;;;;;;;8.80;3.83;;;;;;;;;;10067776;28;20111;-73
2022/06/30 01:05:26;;;;;;;9.13;3.88;;;;;;;;;;10068995;28;20128;-73
2022/06/30 01:15:33;;;;;;;5.90;3.30;;;;;;;;;;10068465;28;20076;-73
2022/06/30 01:20:30;;;;;;;11.38;4.63;;;;;;;;;;10067214;28;20490;-73
2022/06/30 01:25:24;;;;;;;9.48;3.78;;;;;;;;;;10068521;28;20613;-72
2022/06/30 01:30:19;;;;;;;5.57;3.60;;;;;;;;;;10067864;28;20442;-72
2022/06/30 01:35:13;;;;;;;7.13;3.63;;;;;;;;;;10066794;28;20137;-71
2022/06/30 01:40:07;;;;;;;6.85;3.70;;;;;;;;;;10066682;28;20056;-72
2022/06/30 01:45:01;;;;;;;7.75;3.13;;;;;;;;;;10066692;28;20105;-72
2022/06/30 01:49:56;;;;;;;8.45;3.42;;;;;;;;;;10066963;28;20053;-71
2022/06/30 01:54:57;;;;;;;6.85;4.07;;;;;;;;;;10052620;28;20421;-72
2022/06/30 01:59:51;;;;;;;10.10;3.47;;;;;;;;;;10054341;28;20088;-72
2022/06/30 02:04:47;;;;;;;9.75;3.60;;;;;;;;;;10066515;28;20049;-73
2022/06/30 02:09:41;;;;;;;5.10;2.88;;;;;;;;;;10067175;28;20077;-73
2022/06/30 02:14:34;;;;;;;7.05;3.17;;;;;;;;;;10066291;28;20060;-73
2022/06/30 02:19:28;;;;;;;7.88;3.00;;;;;;;;;;10066268;28;20050;-72
2022/06/30 02:24:23;;;;;;;5.75;3.30;;;;;;;;;;10066574;28;20073;-72
2022/06/30 02:29:18;;;;;;;7.47;2.45;;;;;;;;;;10066395;28;20073;-72
2022/06/30 02:34:12;;;;;;;3.00;2.05;;;;;;;;;;10071948;28;20053;-72
2022/06/30 02:39:05;;;;;;;8.68;4.07;;;;;;;;;;10074181;28;20099;-72
2022/06/30 02:44:01;;;;;;;9.02;2.03;;;;;;;;;;10067787;28;20071;-73
2022/06/30 02:48:57;;;;;;;10.65;3.08;;;;;;;;;;10074326;28;20395;-72
2022/06/30 02:53:54;;;;;;;5.05;2.38;;;;;;;;;;10074439;28;20513;-71
2022/06/30 02:58:49;;;;;;;7.35;2.40;;;;;;;;;;10074018;28;20049;-72
2022/06/30 03:03:43;;;;;;;5.85;2.30;;;;;;;;;;10073211;28;20052;-71
2022/06/30 03:08:37;;;;;;;12.20;2.70;;;;;;;;;;10072854;28;20119;-72
2022/06/30 03:13:32;;;;;;;6.18;2.47;;;;;;;;;;10073538;28;20115;-73
2022/06/30 03:18:26;;;;;;;6.30;2.42;;;;;;;;;;10072324;28;20107;-72
2022/06/30 03:23:20;;;;;;;3.05;1.95;;;;;;;;;;10072582;28;20391;-72
2022/06/30 03:28:16;;;;;;;7.20;3.10;;;;;;;;;;10072389;28;20414;-72
2022/06/30 03:33:10;;;;;;;8.32;3.20;;;;;;;;;;10072956;28;20448;-73
2022/06/30 03:38:04;;;;;;;9.00;4.55;;;;;;;;;;10065577;28;20144;-72
2022/06/30 03:42:58;;;;;;;11.95;5.75;;;;;;;;;;10071964;28;20060;-72
2022/06/30 03:47:52;;;;;;;7.82;5.32;;;;;;;;;;10071659;28;20041;-72
2022/06/30 03:52:46;;;;;;;11.00;5.35;;;;;;;;;;10071677;28;20065;-72
2022/06/30 03:57:40;;;;;;;8.38;5.10;;;;;;;;;;10071205;28;20490;-72
2022/06/30 04:02:35;;;;;;;7.25;4.22;;;;;;;;;;10071407;28;20088;-73
2022/06/30 04:07:30;;;;;;;11.38;5.53;;;;;;;;;;10069819;28;20567;-73
2022/06/30 04:12:25;;;;;;;5.38;4.07;;;;;;;;;;10070970;28;20128;-72
2022/06/30 04:17:18;;;;;;;5.88;2.47;;;;;;;;;;10070661;28;20124;-72
2022/06/30 04:22:12;;;;;;;3.95;1.80;;;;;;;;;;10070612;28;20126;-73
2022/06/30 04:27:07;;;;;;;5.70;2.30;;;;;;;;;;10070748;28;20061;-72
2022/06/30 04:37:13;;;;;;;5.00;1.80;;;;;;;;;;10069284;28;20045;-72
2022/06/30 04:42:07;;;;;;;9.18;2.00;;;;;;;;;;10061292;28;20045;-72
2022/06/30 04:47:01;;;;;;;3.40;1.70;;;;;;;;;;10070332;28;20470;-72
2022/06/30 04:51:56;;;;;;;6.43;1.80;;;;;;;;;;10071190;28;20049;-72
2022/06/30 04:56:49;;;;;;;5.13;2.08;;;;;;;;;;10068517;28;20057;-72
2022/06/30 05:01:44;;;;;;;3.72;1.95;;;;;;;;;;10069369;28;20049;-72
2022/06/30 05:06:38;;;;;;;8.57;2.80;;;;;;;;;;10068622;28;20053;-71
2022/06/30 05:11:33;;;;;;;8.75;2.80;;;;;;;;;;10068628;28;20049;-73
2022/06/30 05:16:27;;;;;;;5.30;3.95;;;;;;;;;;10067723;28;20439;-72
2022/06/30 05:21:21;;;;;;;12.30;4.75;;;;;;;;;;10065540;28;20049;-75
2022/06/30 05:26:29;;;;;;;8.60;4.28;;;;;;;;;;10069908;28;20059;-78
2022/06/30 05:31:24;;;;;;;7.80;3.78;;;;;;;;;;10075770;28;20490;-78
2022/06/30 05:36:18;;;;;;;11.15;4.18;;;;;;;;;;10069443;28;20103;-78
2022/06/30 05:41:12;;;;;;;8.52;4.65;;;;;;;;;;10068250;28;20068;-76
2022/06/30 05:46:11;;;;;;;8.30;5.68;;;;;;;;;;10063766;28;20057;-71
2022/06/30 05:51:05;;;;;;;10.80;4.82;;;;;;;;;;10071296;28;20052;-77
2022/06/30 05:55:59;;;;;;;9.55;4.78;;;;;;;;;;10064790;28;20064;-76
2022/06/30 06:00:53;;;;;;;10.05;4.90;;;;;;;;;;10067077;28;20045;-76
2022/06/30 06:05:47;;;;;;;7.57;5.63;;;;;;;;;;10078307;28;20064;-77
2022/06/30 06:10:41;;;;;;;14.35;6.82;;;;;;;;;;10070371;28;20045;-77
2022/06/30 06:15:35;;;;;;;12.07;7.57;;;;;;;;;;10073698;28;20433;-76
2022/06/30 06:20:28;;;;;;;10.27;5.35;;;;;;;;;;10069254;28;20139;-77
2022/06/30 06:25:21;;;;;;;16.17;4.53;;;;;;;;;;10075693;28;20080;-77
2022/06/30 06:30:15;;;;;;;14.65;7.32;;;;;;;;;;10074131;28;20053;-76
2022/06/30 06:35:09;;;;;;;15.90;6.93;;;;;;;;;;10074449;28;20063;-78
2022/06/30 06:40:06;;;;;;;13.60;5.75;;;;;;;;;;10073356;28;20136;-77
2022/06/30 06:45:00;;;;;;;12.15;5.35;;;;;;;;;;10074503;28;20049;-77
2022/06/30 06:49:54;;;;;;;10.65;3.25;;;;;;;;;;10068919;28;20076;-75
2022/06/30 06:54:48;;;;;;;17.77;5.63;;;;;;;;;;10072978;28;20045;-77
2022/06/30 06:59:42;;;;;;;3.28;2.28;;;;;;;;;;10072426;28;20433;-75
2022/06/30 07:04:36;;;;;;;6.93;2.42;;;;;;;;;;10067014;28;20053;-77
2022/06/30 07:09:30;;;;;;;5.03;2.05;;;;;;;;;;10064579;28;20119;-77
2022/06/30 07:14:25;;;;;;;5.28;1.85;;;;;;;;;;10064763;28;20049;-77
2022/06/30 07:19:19;;;;;;;5.85;1.85;;;;;;;;;;10068573;28;20057;-77
2022/06/30 07:24:12;;;;;;;5.97;2.85;;;;;;;;;;10075834;28;20063;-78
2022/06/30 07:29:06;;;;;;;9.82;3.78;;;;;;;;;;10074882;28;20545;-78
2022/06/30 07:34:00;;;;;;;8.85;2.28;;;;;;;;;;10071651;28;20057;-78
2022/06/30 07:38:54;;;;;;;5.57;2.38;;;;;;;;;;10071119;28;20052;-77
2022/06/30 07:43:48;;;;;;;6.60;2.30;;;;;;;;;;10071088;28;20037;-77
2022/06/30 07:48:43;;;;;;;10.07;2.50;;;;;;;;;;10070151;28;20049;-76
2022/06/30 07:53:38;;;;;;;7.28;2.78;;;;;;;;;;10068857;28;20057;-67
2022/06/30 07:58:33;;;;;;;5.93;2.50;;;;;;;;;;10070537;28;20049;-67
2022/06/30 08:03:26;;;;;;;9.68;2.47;;;;;;;;;;10071102;28;20050;-67
2022/06/30 08:08:21;;;;;;;5.32;2.97;;;;;;;;;;10070796;28;20463;-68
2022/06/30 08:13:14;;;;;;;7.63;2.13;;;;;;;;;;10070053;28;20530;-67
2022/06/30 08:18:08;;;;;;;9.27;2.63;;;;;;;;;;10069605;28;20041;-67
2022/06/30 08:23:02;;;;;;;6.07;2.72;;;;;;;;;;10068959;28;20464;-66
2022/06/30 08:27:56;;;;;;;6.43;3.05;;;;;;;;;;10093117;28;20056;-68
2022/06/30 08:32:52;;;;;;;7.63;2.80;;;;;;;;;;10086002;28;20501;-69
2022/06/30 08:37:45;;;;;;;6.25;2.58;;;;;;;;;;10092215;28;20529;-67
2022/06/30 08:42:39;;;;;;;6.45;2.70;;;;;;;;;;10078340;28;20103;-67
2022/06/30 08:47:33;;;;;;;10.48;2.58;;;;;;;;;;10064619;28;20053;-67
2022/06/30 08:52:30;;;;;;;8.52;3.28;;;;;;;;;;10069809;28;20049;-65
2022/06/30 08:57:26;;;;;;;7.85;2.90;;;;;;;;;;10088057;28;20490;-67
2022/06/30 09:02:20;;;;;;;6.20;2.67;;;;;;;;;;10073633;28;20050;-67
2022/06/30 09:07:14;;;;;;;5.00;2.60;;;;;;;;;;10068956;28;20069;-67
2022/06/30 09:12:16;;;;;;;10.10;2.80;;;;;;;;;;10068267;28;20053;-67
2022/06/30 09:17:30;;;;;;;5.47;2.60;;;;;;;;;;10067425;28;20493;-66
2022/06/30 09:22:35;;;;;;;9.13;2.58;;;;;;;;;;10067225;28;20057;-67
2022/06/30 09:27:33;;;;;;;7.00;2.97;;;;;;;;;;10067500;28;20055;-67
2022/06/30 09:32:26;;;;;;;8.57;2.65;;;;;;;;;;10067640;28;20676;-67
2022/06/30 09:37:23;;;;;;;14.48;2.72;;;;;;;;;;10067843;28;20505;-67
2022/06/30 09:42:38;;;;;;;9.88;3.40;;;;;;;;;;10076245;28;20053;-66
2022/06/30 09:47:54;;;;;;;7.28;3.03;;;;;;;;;;10081035;28;20053;-67
2022/06/30 09:53:02;;;;;;;8.95;2.47;;;;;;;;;;10070966;28;20111;-67
2022/06/30 09:57:56;;;;;;;6.63;3.03;;;;;;;;;;10065161;28;20046;-67
2022/06/30 10:02:52;;;;;;;5.35;2.40;;;;;;;;;;10064736;28;20069;-67
2022/06/30 10:07:46;;;;;;;7.40;2.57;;;;;;;;;;10066727;28;20095;-67
2022/06/30 10:12:43;;;;;;;11.60;2.90;;;;;;;;;;10064329;28;20848;-67
2022/06/30 10:17:44;;;;;;;10.50;2.72;;;;;;;;;;10061538;28;20053;-66
2022/06/30 10:22:44;;;;;;;8.60;2.95;;;;;;;;;;10052792;28;20108;-67
2022/06/30 10:27:38;;;;;;;6.00;2.35;;;;;;;;;;10064509;28;20053;-67
2022/06/30 10:32:56;;;;;;;8.38;2.00;;;;;;;;;;10068281;28;20128;-66
2022/06/30 10:38:16;;;;;;;10.70;2.13;;;;;;;;;;10063501;28;20045;-66
2022/06/30 10:43:10;;;;;;;10.50;2.42;;;;;;;;;;10065375;28;20409;-67
2022/06/30 10:48:06;;;;;;;10.25;3.17;;;;;;;;;;10062161;28;20045;-67
2022/06/30 10:53:02;;;;;;;9.43;3.28;;;;;;;;;;10066963;28;20133;-67
2022/06/30 10:58:06;;;;;;;4.75;1.88;;;;;;;;;;10070315;28;20069;-66
2022/06/30 11:03:00;;;;;;;9.85;4.05;;;;;;;;;;10073355;28;20532;-67
2022/06/30 11:07:54;;;;;;;9.85;2.60;;;;;;;;;;10072344;28;20472;-67
2022/06/30 11:12:46;;;;;;;7.57;2.28;;;;;;;;;;10072650;28;20421;-67
2022/06/30 11:17:40;;;;;;;13.77;2.65;;;;;;;;;;10072914;28;20116;-67
2022/06/30 11:22:34;;;;;;;5.95;2.35;;;;;;;;;;10071738;28;20070;-67
2022/06/30 11:27:28;;;;;;;7.65;2.20;;;;;;;;;;10073922;28;20057;-67
2022/06/30 11:32:24;;;;;;;6.38;3.30;;;;;;;;;;10072239;28;20061;-67
2022/06/30 11:37:21;;;;;;;7.50;2.20;;;;;;;;;;10073085;28;20077;-67
2022/06/30 11:42:16;;;;;;;9.38;2.45;;;;;;;;;;10071172;28;20046;-67
2022/06/30 11:47:11;;;;;;;4.75;1.77;;;;;;;;;;10071382;28;20394;-67
2022/06/30 11:52:20;;;;;;;;;;;;;;;;;;10090691;28;20045;-67
2022/06/30 11:57:14;;;;;;;10.63;3.13;;;;;;;;;;10070665;28;19921;-67
2022/06/30 12:02:08;;;;;;;9.90;2.22;;;;;;;;;;10069878;28;20124;-66
2022/06/30 12:07:05;;;;;;;14.48;2.45;;;;;;;;;;10070673;28;20053;-66
2022/06/30 12:12:26;;;;;;;16.95;3.70;;;;;;;;;;10069127;28;20121;-65
2022/06/30 12:17:22;;;;;;;14.00;2.85;;;;;;;;;;10068170;28;20045;-65
2022/06/30 12:22:16;;;;;;;16.55;3.83;;;;;;;;;;10095584;28;20114;-65
2022/06/30 12:27:24;;;;;;;9.77;2.25;;;;;;;;;;10080928;28;20049;-65
2022/06/30 12:32:20;;;;;;;9.40;3.15;;;;;;;;;;10068409;28;20041;-65
2022/06/30 12:37:14;;;;;;;10.35;2.40;;;;;;;;;;10066685;28;20057;-65
2022/06/30 12:42:08;;;;;;;11.25;2.85;;;;;;;;;;10068383;28;20045;-65
2022/06/30 12:47:08;;;;;;;7.95;2.63;;;;;;;;;;10077262;28;20060;-65
2022/06/30 12:52:12;;;;;;;5.15;2.20;;;;;;;;;;10085355;28;20053;-65
2022/06/30 12:57:06;;;;;;;9.43;2.47;;;;;;;;;;10072125;28;20150;-65
2022/06/30 13:02:01;;;;;;;10.55;2.80;;;;;;;;;;10069593;28;20037;-65
2022/06/30 13:06:55;;;;;;;;;;;;;;;;;;10068567;28;20050;-65
2022/06/30 13:11:51;;;;;;;8.68;1.85;;;;;;;;;;10067656;28;20019;-65
2022/06/30 13:16:45;;;;;;;7.60;2.85;;;;;;;;;;10068016;28;20128;-64
2022/06/30 13:21:39;;;;;;;6.68;2.00;;;;;;;;;;10075915;28;20041;-64
2022/06/30 13:26:34;;;;;;;24.48;4.15;;;;;;;;;;10067702;28;20045;-65
2022/06/30 13:31:31;;;;;;;9.38;2.58;;;;;;;;;;10066929;28;20148;-65
2022/06/30 13:36:27;;;;;;;11.75;2.63;;;;;;;;;;10067317;28;20061;-65
2022/06/30 13:41:21;;;;;;;8.90;2.22;;;;;;;;;;10066628;28;20136;-65
2022/06/30 13:46:15;;;;;;;6.22;2.05;;;;;;;;;;10066701;28;20406;-65
2022/06/30 13:51:09;;;;;;;7.45;2.10;;;;;;;;;;10068406;28;20087;-65
2022/06/30 13:56:03;;;;;;;13.13;3.17;;;;;;;;;;10072749;28;20425;-65
2022/06/30 14:00:57;;;;;;;14.87;3.07;;;;;;;;;;10071791;28;20119;-65
2022/06/30 14:05:50;;;;;;;12.75;2.85;;;;;;;;;;10063953;28;20319;-65
2022/06/30 14:10:44;;;;;;;16.85;2.83;;;;;;;;;;10066061;28;20057;-65
2022/06/30 14:15:38;;;;;;;11.95;2.65;;;;;;;;;;10065677;28;20073;-65
2022/06/30 14:20:33;;;;;;;14.13;4.00;;;;;;;;;;10059139;28;20045;-65
2022/06/30 14:25:27;;;;;;;8.57;2.20;;;;;;;;;;10062060;28;20103;-65
2022/06/30 14:30:23;;;;;;;11.23;2.40;;;;;;;;;;10074535;28;20486;-64
2022/06/30 14:35:34;;;;;;;7.18;2.33;;;;;;;;;;10069645;28;20065;-65
2022/06/30 14:40:29;;;;;;;4.10;1.90;;;;;;;;;;10069825;28;20095;-65
2022/06/30 14:45:24;;;;;;;8.30;2.13;;;;;;;;;;10064732;28;20053;-67
2022/06/30 14:50:20;;;;;;;12.15;2.58;;;;;;;;;;10064952;28;20505;-67
2022/06/30 14:55:16;;;;;;;8.90;2.08;;;;;;;;;;10065468;28;20081;-67
2022/06/30 15:00:11;;;;;;;13.98;2.30;;;;;;;;;;10065174;28;20084;-67
2022/06/30 15:05:08;;;;;;;8.27;2.10;;;;;;;;;;10069415;28;20099;-74
2022/06/30 15:10:04;;;;;;;7.72;2.53;;;;;;;;;;10065814;28;20045;-65
2022/06/30 15:14:57;;;;;;;7.73;3.27;;;;;;;;;;10063259;28;20072;-65
2022/06/30 15:19:51;;;;;;;9.23;2.30;;;;;;;;;;10068322;28;20049;-65
2022/06/30 15:24:45;;;;;;;6.38;2.08;;;;;;;;;;10064555;28;20050;-65
2022/06/30 15:29:39;;;;;;;14.00;2.33;;;;;;;;;;10064367;28;20045;-65
2022/06/30 15:34:34;;;;;;;7.13;2.08;;;;;;;;;;10060768;28;20057;-65
2022/06/30 15:39:47;;;;;;;17.13;2.67;;;;;;;;;;10064179;28;20139;-64
2022/06/30 15:44:51;;;;;;;8.90;2.80;;;;;;;;;;10069032;28;20058;-64
2022/06/30 15:49:45;;;;;;;9.13;2.20;;;;;;;;;;10070912;28;20045;-65
2022/06/30 15:54:40;;;;;;;7.10;1.95;;;;;;;;;;10071004;28;20132;-65
2022/06/30 15:59:34;;;;;;;6.80;2.10;;;;;;;;;;10075481;28;20471;-65
2022/06/30 16:04:28;;;;;;;9.90;3.27;;;;;;;;;;10071742;28;20064;-65
2022/06/30 16:09:22;;;;;;;10.13;2.28;;;;;;;;;;10072781;28;20042;-65
2022/06/30 16:14:17;;;;;;;6.47;2.35;;;;;;;;;;10063669;28;20064;-65
2022/06/30 16:19:12;;;;;;;10.30;2.97;;;;;;;;;;10066256;28;20050;-64
2022/06/30 16:24:08;;;;;;;11.07;3.55;;;;;;;;;;10066844;28;20651;-64
2022/06/30 16:29:01;;;;;;;8.55;2.38;;;;;;;;;;10065403;28;20052;-64
2022/06/30 16:33:55;;;;;;;8.25;2.78;;;;;;;;;;10066884;28;20053;-65
2022/06/30 16:38:49;;;;;;;6.32;2.55;;;;;;;;;;10069305;28;20046;-64
2022/06/30 16:43:49;;;;;;;7.47;2.75;;;;;;;;;;10065309;28;20053;-64
2022/06/30 16:48:46;;;;;;;6.30;2.28;;;;;;;;;;10066439;28;20053;-64
2022/06/30 16:53:41;;;;;;;6.00;2.50;;;;;;;;;;10068722;28;20132;-64
2022/06/30 16:58:35;;;;;;;7.80;2.53;;;;;;;;;;10069250;28;20041;-64
2022/06/30 17:03:30;;;;;;;7.63;2.53;;;;;;;;;;10070016;28;20547;-63
2022/06/30 17:08:24;;;;;;;10.35;3.05;;;;;;;;;;10073149;28;20426;-63
2022/06/30 17:13:18;;;;;;;10.88;3.38;;;;;;;;;;10072920;28;20041;-64
2022/06/30 17:18:13;;;;;;;10.68;3.17;;;;;;;;;;10064252;28;20049;-64
2022/06/30 17:23:07;;;;;;;12.60;3.43;;;;;;;;;;10074109;28;20057;-64
2022/06/30 17:28:01;;;;;;;10.50;2.80;;;;;;;;;;10064654;28;20053;-63
2022/06/30 17:32:55;;;;;;;9.77;2.80;;;;;;;;;;10064368;28;20051;-63
2022/06/30 17:37:49;;;;;;;7.82;2.97;;;;;;;;;;10067561;28;20045;-64
2022/06/30 17:42:42;;;;;;;5.63;2.92;;;;;;;;;;10067122;28;20049;-63
2022/06/30 17:47:36;;;;;;;13.63;3.13;;;;;;;;;;10067214;28;20395;-63
2022/06/30 17:52:31;;;;;;;8.07;2.80;;;;;;;;;;10067269;28;20145;-63
2022/06/30 17:57:25;;;;;;;13.00;3.92;;;;;;;;;;10064958;28;20049;-64
2022/06/30 18:02:19;;;;;;;11.77;3.20;;;;;;;;;;10069287;28;20056;-63
2022/06/30 18:12:25;;;;;;;10.90;3.97;;;;;;;;;;10081500;28;20049;-62
2022/06/30 18:17:19;;;;;;;9.80;3.58;;;;;;;;;;10067086;28;20049;-62
2022/06/30 18:22:13;;;;;;;10.77;4.30;;;;;;;;;;10065263;28;20514;-62
2022/06/30 18:27:08;;;;;;;8.00;3.17;;;;;;;;;;10066806;28;20510;-66
2022/06/30 18:32:03;;;;;;;7.55;2.70;;;;;;;;;;10067521;28;20057;-74
2022/06/30 18:36:56;;;;;;;7.50;3.10;;;;;;;;;;10074654;28;20109;-65
2022/06/30 18:41:51;;;;;;;19.92;4.13;;;;;;;;;;10069442;28;20128;-64
2022/06/30 18:46:45;;;;;;;18.38;4.50;;;;;;;;;;10055963;28;20469;-64
2022/06/30 18:51:39;;;;;;;11.25;3.78;;;;;;;;;;10068201;28;20053;-65
2022/06/30 18:56:37;;;;;;;8.85;3.35;;;;;;;;;;10079176;28;20056;-64
2022/06/30 19:01:31;;;;;;;;;;;;;;;;;;10060662;28;20045;-63
2022/06/30 19:06:25;;;;;;;10.45;3.55;;;;;;;;;;10080753;28;19920;-64
2022/06/30 19:11:19;;;;;;;13.55;3.75;;;;;;;;;;10065902;28;20057;-65
2022/06/30 19:16:13;;;;;;;14.25;4.30;;;;;;;;;;10063062;28;20053;-65
2022/06/30 19:21:08;;;;;;;10.27;3.88;;;;;;;;;;10062583;28;20061;-65
2022/06/30 19:26:25;;;;;;;12.13;5.25;;;;;;;;;;10061324;28;20050;-64
2022/06/30 19:31:20;;;;;;;15.80;4.28;;;;;;;;;;10054444;28;20157;-65
2022/06/30 19:36:13;;;;;;;16.67;5.07;;;;;;;;;;10064886;28;20037;-64
2022/06/30 19:41:09;;;;;;;16.90;4.05;;;;;;;;;;10059399;28;20470;-66
2022/06/30 19:46:07;;;;;;;16.40;4.40;;;;;;;;;;10060884;28;20047;-66
2022/06/30 19:51:04;;;;;;;7.45;3.00;;;;;;;;;;10062092;28;20152;-65
2022/06/30 19:55:58;;;;;;;5.55;2.50;;;;;;;;;;10070010;28;20198;-64
2022/06/30 20:00:52;;;;;;;5.95;2.50;;;;;;;;;;10089460;28;20067;-65
2022/06/30 20:05:46;;;;;;;3.67;2.38;;;;;;;;;;10070244;28;20103;-66
2022/06/30 20:15:53;;;;;;;4.85;1.77;;;;;;;;;;10075406;28;20124;-67
2022/06/30 20:20:46;;;;;;;8.68;2.25;;;;;;;;;;10069389;28;20125;-67
2022/06/30 20:25:41;;;;;;;10.55;2.60;;;;;;;;;;10062862;28;20540;-66
2022/06/30 20:30:35;;;;;;;7.07;2.90;;;;;;;;;;10064471;28;20048;-67
2022/06/30 20:35:29;;;;;;;8.30;3.47;;;;;;;;;;10068808;28;20053;-66
2022/06/30 20:40:24;;;;;;;7.13;2.67;;;;;;;;;;10075637;28;20059;-67
2022/06/30 20:45:18;;;;;;;6.68;2.80;;;;;;;;;;10074334;28;20045;-67
2022/06/30 20:55:26;;;;;;;4.82;2.45;;;;;;;;;;10069387;28;20421;-65
2022/06/30 21:00:21;;;;;;;8.02;2.70;;;;;;;;;;10069680;28;20072;-65
2022/06/30 21:05:15;;;;;;;9.38;2.50;;;;;;;;;;10068792;28;20076;-66
2022/06/30 21:10:09;;;;;;;4.65;3.55;;;;;;;;;;10060630;28;20455;-64
2022/06/30 21:15:08;;;;;;;6.20;2.40;;;;;;;;;;10066461;28;20454;-67
2022/06/30 21:20:06;;;;;;;6.78;2.53;;;;;;;;;;10067146;28;20088;-65
2022/06/30 21:25:00;;;;;;;3.28;2.05;;;;;;;;;;10064440;28;20049;-65
2022/06/30 21:29:54;;;;;;;3.78;2.40;;;;;;;;;;10064143;28;20056;-63
2022/06/30 21:34:48;;;;;;;5.22;2.22;;;;;;;;;;10057310;28;20053;-63
2022/06/30 21:39:42;;;;;;;4.13;2.50;;;;;;;;;;10062873;28;20037;-67
2022/06/30 21:44:35;;;;;;;8.15;2.47;;;;;;;;;;10060435;28;20053;-67
2022/06/30 21:49:29;;;;;;;3.58;2.35;;;;;;;;;;10062462;28;20048;-64
2022/06/30 21:54:23;;;;;;;7.45;2.65;;;;;;;;;;10066908;28;20128;-64
2022/06/30 21:59:17;;;;;;;4.38;1.98;;;;;;;;;;10067244;28;20080;-64
2022/06/30 22:04:15;;;;;;;5.60;2.10;;;;;;;;;;10069844;28;20061;-64
2022/06/30 22:09:08;;;;;;;6.13;2.38;;;;;;;;;;10066799;28;20056;-64
2022/06/30 22:14:02;;;;;;;4.25;1.90;;;;;;;;;;10067002;28;20124;-64
2022/06/30 22:18:57;;;;;;;9.02;2.75;;;;;;;;;;10066422;28;20394;-64
2022/06/30 22:23:51;;;;;;;2.35;2.00;;;;;;;;;;10066701;28;20057;-63
2022/06/30 22:28:45;;;;;;;2.53;2.03;;;;;;;;;;10066291;28;20422;-64
2022/06/30 22:33:39;;;;;;;5.20;2.42;;;;;;;;;;10066619;28;20099;-64
2022/06/30 22:38:33;;;;;;;2.80;1.80;;;;;;;;;;10066825;28;20063;-64
2022/06/30 22:43:27;;;;;;;2.63;1.75;;;;;;;;;;10066409;28;20139;-64
2022/06/30 22:48:20;;;;;;;11.18;3.05;;;;;;;;;;10067323;28;20524;-64
2022/06/30 22:53:15;;;;;;;8.55;2.50;;;;;;;;;;10073873;28;20449;-63
2022/06/30 22:58:09;;;;;;;3.63;2.72;;;;;;;;;;10074215;28;20060;-63
2022/06/30 23:03:03;;;;;;;6.00;2.40;;;;;;;;;;10074171;28;20054;-64
2022/06/30 23:07:58;;;;;;;4.65;2.22;;;;;;;;;;10074005;28;20057;-63
2022/06/30 23:12:52;;;;;;;2.95;1.95;;;;;;;;;;10078544;28;20053;-64
2022/06/30 23:17:45;;;;;;;7.03;1.60;;;;;;;;;;10071077;28;20513;-63
2022/06/30 23:22:40;;;;;;;3.88;1.70;;;;;;;;;;10072731;28;20522;-64
2022/06/30 23:27:34;;;;;;;4.70;1.60;;;;;;;;;;10073105;28;20099;-63
2022/06/30 23:32:28;;;;;;;2.95;2.60;;;;;;;;;;10073113;28;20512;-64
2022/06/30 23:37:23;;;;;;;4.03;1.80;;;;;;;;;;10071404;28;20050;-63
2022/06/30 23:42:17;;;;;;;3.33;1.50;;;;;;;;;;10072673;28;20059;-63
2022/06/30 23:47:11;;;;;;;2.95;1.90;;;;;;;;;;10069990;28;20136;-63
2022/06/30 23:52:06;;;;;;;4.53;2.08;;;;;;;;;;10062155;28;20506;-63
2022/06/30 23:57:00;;;;;;;2.30;1.60;;;;;;;;;;10069700;28;20486;-63
